sensor_id;sensor_type;location;lat;lon;timestamp;P1;durP1;ratioP1;P2;durP2;ratioP2
36379;SDS011;22411;53.016;18.632;2023-05-10T00:00:07;7.28;;;2.47;;
36379;SDS011;22411;53.016;18.632;2023-05-10T00:03:00;3.78;;;1.60;;
36379;SDS011;22411;53.016;18.632;2023-05-10T00:05:30;3.28;;;1.85;;
36379;SDS011;22411;53.016;18.632;2023-05-10T00:08:04;3.55;;;1.65;;
36379;SDS011;22411;53.016;18.632;2023-05-10T00:10:36;5.13;;;2.22;;
36379;SDS011;22411;53.016;18.632;2023-05-10T00:13:12;4.30;;;1.92;;
36379;SDS011;22411;53.016;18.632;2023-05-10T00:15:42;5.35;;;1.75;;
36379;SDS011;22411;53.016;18.632;2023-05-10T00:18:09;2.42;;;1.55;;
36379;SDS011;22411;53.016;18.632;2023-05-10T00:20:35;3.03;;;1.95;;
36379;SDS011;22411;53.016;18.632;2023-05-10T00:23:06;3.63;;;1.98;;
36379;SDS011;22411;53.016;18.632;2023-05-10T00:25:32;3.80;;;1.60;;
36379;SDS011;22411;53.016;18.632;2023-05-10T00:27:58;3.38;;;2.08;;
36379;SDS011;22411;53.016;18.632;2023-05-10T00:30:26;5.13;;;2.35;;
36379;SDS011;22411;53.016;18.632;2023-05-10T00:32:53;2.63;;;1.92;;
36379;SDS011;22411;53.016;18.632;2023-05-10T00:35:19;3.63;;;1.58;;
36379;SDS011;22411;53.016;18.632;2023-05-10T00:37:45;4.82;;;2.33;;
36379;SDS011;22411;53.016;18.632;2023-05-10T00:40:12;6.00;;;2.45;;
36379;SDS011;22411;53.016;18.632;2023-05-10T00:42:43;2.58;;;1.88;;
36379;SDS011;22411;53.016;18.632;2023-05-10T00:45:09;4.18;;;2.40;;
36379;SDS011;22411;53.016;18.632;2023-05-10T00:47:42;3.65;;;2.33;;
36379;SDS011;22411;53.016;18.632;2023-05-10T00:50:08;4.40;;;2.05;;
36379;SDS011;22411;53.016;18.632;2023-05-10T00:52:37;4.15;;;2.30;;
36379;SDS011;22411;53.016;18.632;2023-05-10T00:55:03;6.55;;;2.03;;
36379;SDS011;22411;53.016;18.632;2023-05-10T00:57:30;5.10;;;2.10;;
36379;SDS011;22411;53.016;18.632;2023-05-10T00:59:56;2.92;;;1.63;;
36379;SDS011;22411;53.016;18.632;2023-05-10T01:02:23;8.75;;;2.55;;
36379;SDS011;22411;53.016;18.632;2023-05-10T01:04:49;3.00;;;1.77;;
36379;SDS011;22411;53.016;18.632;2023-05-10T01:07:17;4.43;;;2.35;;
36379;SDS011;22411;53.016;18.632;2023-05-10T01:09:43;3.78;;;2.60;;
36379;SDS011;22411;53.016;18.632;2023-05-10T01:12:10;5.47;;;2.15;;
36379;SDS011;22411;53.016;18.632;2023-05-10T01:14:38;6.72;;;2.58;;
36379;SDS011;22411;53.016;18.632;2023-05-10T01:17:08;5.25;;;2.15;;
36379;SDS011;22411;53.016;18.632;2023-05-10T01:19:36;4.32;;;1.83;;
36379;SDS011;22411;53.016;18.632;2023-05-10T01:22:06;3.20;;;1.80;;
36379;SDS011;22411;53.016;18.632;2023-05-10T01:27:51;4.93;;;2.30;;
36379;SDS011;22411;53.016;18.632;2023-05-10T01:38:48;3.17;;;2.20;;
36379;SDS011;22411;53.016;18.632;2023-05-10T01:41:18;4.95;;;2.38;;
36379;SDS011;22411;53.016;18.632;2023-05-10T01:46:24;4.10;;;2.45;;
36379;SDS011;22411;53.016;18.632;2023-05-10T01:48:55;4.85;;;2.53;;
36379;SDS011;22411;53.016;18.632;2023-05-10T01:51:24;3.50;;;2.20;;
36379;SDS011;22411;53.016;18.632;2023-05-10T01:53:58;3.13;;;2.35;;
36379;SDS011;22411;53.016;18.632;2023-05-10T01:56:26;4.65;;;2.78;;
36379;SDS011;22411;53.016;18.632;2023-05-10T01:58:55;6.35;;;2.78;;
36379;SDS011;22411;53.016;18.632;2023-05-10T02:01:22;2.75;;;1.90;;
36379;SDS011;22411;53.016;18.632;2023-05-10T02:03:51;4.25;;;2.28;;
36379;SDS011;22411;53.016;18.632;2023-05-10T02:06:20;2.47;;;1.90;;
36379;SDS011;22411;53.016;18.632;2023-05-10T02:08:49;3.53;;;2.00;;
36379;SDS011;22411;53.016;18.632;2023-05-10T02:11:17;3.35;;;2.42;;
36379;SDS011;22411;53.016;18.632;2023-05-10T02:13:49;5.82;;;3.00;;
36379;SDS011;22411;53.016;18.632;2023-05-10T02:16:25;6.90;;;2.78;;
36379;SDS011;22411;53.016;18.632;2023-05-10T02:18:52;9.05;;;2.78;;
36379;SDS011;22411;53.016;18.632;2023-05-10T02:21:21;3.67;;;2.50;;
36379;SDS011;22411;53.016;18.632;2023-05-10T02:23:50;3.17;;;2.45;;
36379;SDS011;22411;53.016;18.632;2023-05-10T02:26:17;5.03;;;2.47;;
36379;SDS011;22411;53.016;18.632;2023-05-10T02:28:48;4.72;;;2.65;;
36379;SDS011;22411;53.016;18.632;2023-05-10T02:31:16;5.68;;;2.60;;
36379;SDS011;22411;53.016;18.632;2023-05-10T02:33:45;3.22;;;2.05;;
36379;SDS011;22411;53.016;18.632;2023-05-10T02:36:13;6.05;;;2.95;;
36379;SDS011;22411;53.016;18.632;2023-05-10T02:38:40;4.53;;;3.42;;
36379;SDS011;22411;53.016;18.632;2023-05-10T02:41:07;4.05;;;2.65;;
36379;SDS011;22411;53.016;18.632;2023-05-10T02:43:36;4.88;;;2.38;;
36379;SDS011;22411;53.016;18.632;2023-05-10T02:46:05;3.17;;;2.35;;
36379;SDS011;22411;53.016;18.632;2023-05-10T02:48:31;6.35;;;2.60;;
36379;SDS011;22411;53.016;18.632;2023-05-10T02:51:00;3.45;;;2.33;;
36379;SDS011;22411;53.016;18.632;2023-05-10T02:53:32;5.18;;;3.00;;
36379;SDS011;22411;53.016;18.632;2023-05-10T02:56:01;4.13;;;2.67;;
36379;SDS011;22411;53.016;18.632;2023-05-10T02:58:40;4.82;;;2.42;;
36379;SDS011;22411;53.016;18.632;2023-05-10T03:01:07;4.30;;;2.80;;
36379;SDS011;22411;53.016;18.632;2023-05-10T03:03:33;4.90;;;3.15;;
36379;SDS011;22411;53.016;18.632;2023-05-10T03:05:59;4.25;;;2.33;;
36379;SDS011;22411;53.016;18.632;2023-05-10T03:08:26;4.78;;;2.35;;
36379;SDS011;22411;53.016;18.632;2023-05-10T03:10:58;4.10;;;2.80;;
36379;SDS011;22411;53.016;18.632;2023-05-10T03:13:35;6.00;;;3.35;;
36379;SDS011;22411;53.016;18.632;2023-05-10T03:16:11;3.63;;;2.15;;
36379;SDS011;22411;53.016;18.632;2023-05-10T03:18:44;4.75;;;3.10;;
36379;SDS011;22411;53.016;18.632;2023-05-10T03:21:16;4.13;;;2.83;;
36379;SDS011;22411;53.016;18.632;2023-05-10T03:24:06;4.30;;;3.05;;
36379;SDS011;22411;53.016;18.632;2023-05-10T03:26:37;4.55;;;2.70;;
36379;SDS011;22411;53.016;18.632;2023-05-10T03:29:06;4.68;;;3.30;;
36379;SDS011;22411;53.016;18.632;2023-05-10T03:31:33;9.43;;;3.50;;
36379;SDS011;22411;53.016;18.632;2023-05-10T03:34:00;3.78;;;2.53;;
36379;SDS011;22411;53.016;18.632;2023-05-10T03:36:26;3.70;;;2.42;;
36379;SDS011;22411;53.016;18.632;2023-05-10T03:38:53;11.52;;;2.85;;
36379;SDS011;22411;53.016;18.632;2023-05-10T03:41:19;5.15;;;3.20;;
36379;SDS011;22411;53.016;18.632;2023-05-10T03:43:46;4.65;;;3.00;;
36379;SDS011;22411;53.016;18.632;2023-05-10T03:46:13;5.55;;;3.38;;
36379;SDS011;22411;53.016;18.632;2023-05-10T03:48:40;7.80;;;3.20;;
36379;SDS011;22411;53.016;18.632;2023-05-10T03:51:06;4.78;;;2.63;;
36379;SDS011;22411;53.016;18.632;2023-05-10T03:53:33;5.38;;;2.92;;
36379;SDS011;22411;53.016;18.632;2023-05-10T03:55:59;3.90;;;2.42;;
36379;SDS011;22411;53.016;18.632;2023-05-10T03:58:26;7.70;;;3.00;;
36379;SDS011;22411;53.016;18.632;2023-05-10T04:00:53;5.18;;;3.10;;
36379;SDS011;22411;53.016;18.632;2023-05-10T04:03:19;5.43;;;2.78;;
36379;SDS011;22411;53.016;18.632;2023-05-10T04:05:46;4.35;;;2.45;;
36379;SDS011;22411;53.016;18.632;2023-05-10T04:08:12;6.55;;;3.10;;
36379;SDS011;22411;53.016;18.632;2023-05-10T04:10:38;5.55;;;3.50;;
36379;SDS011;22411;53.016;18.632;2023-05-10T04:13:04;4.70;;;3.17;;
36379;SDS011;22411;53.016;18.632;2023-05-10T04:15:30;5.50;;;3.45;;
36379;SDS011;22411;53.016;18.632;2023-05-10T04:17:56;5.68;;;3.17;;
36379;SDS011;22411;53.016;18.632;2023-05-10T04:20:21;7.53;;;3.88;;
36379;SDS011;22411;53.016;18.632;2023-05-10T04:22:49;5.88;;;3.13;;
36379;SDS011;22411;53.016;18.632;2023-05-10T04:25:14;5.85;;;3.65;;
36379;SDS011;22411;53.016;18.632;2023-05-10T04:27:41;5.60;;;2.75;;
36379;SDS011;22411;53.016;18.632;2023-05-10T04:30:07;9.50;;;3.70;;
36379;SDS011;22411;53.016;18.632;2023-05-10T04:32:34;5.35;;;2.55;;
36379;SDS011;22411;53.016;18.632;2023-05-10T04:35:02;5.65;;;2.88;;
36379;SDS011;22411;53.016;18.632;2023-05-10T04:37:32;4.22;;;3.08;;
36379;SDS011;22411;53.016;18.632;2023-05-10T04:39:58;8.35;;;3.22;;
36379;SDS011;22411;53.016;18.632;2023-05-10T04:42:25;4.60;;;3.10;;
36379;SDS011;22411;53.016;18.632;2023-05-10T04:44:51;3.90;;;2.30;;
36379;SDS011;22411;53.016;18.632;2023-05-10T04:47:18;5.43;;;2.50;;
36379;SDS011;22411;53.016;18.632;2023-05-10T04:49:48;5.22;;;2.10;;
36379;SDS011;22411;53.016;18.632;2023-05-10T04:52:15;7.35;;;3.28;;
36379;SDS011;22411;53.016;18.632;2023-05-10T04:54:43;4.72;;;2.20;;
36379;SDS011;22411;53.016;18.632;2023-05-10T04:57:09;7.32;;;2.90;;
36379;SDS011;22411;53.016;18.632;2023-05-10T04:59:35;6.85;;;2.63;;
36379;SDS011;22411;53.016;18.632;2023-05-10T05:02:03;6.97;;;2.60;;
36379;SDS011;22411;53.016;18.632;2023-05-10T05:04:30;12.45;;;3.72;;
36379;SDS011;22411;53.016;18.632;2023-05-10T05:06:57;4.90;;;2.42;;
36379;SDS011;22411;53.016;18.632;2023-05-10T05:09:23;4.15;;;2.50;;
36379;SDS011;22411;53.016;18.632;2023-05-10T05:11:49;7.18;;;2.58;;
36379;SDS011;22411;53.016;18.632;2023-05-10T05:14:15;3.42;;;1.88;;
36379;SDS011;22411;53.016;18.632;2023-05-10T05:16:41;4.80;;;2.33;;
36379;SDS011;22411;53.016;18.632;2023-05-10T05:19:08;5.47;;;1.92;;
36379;SDS011;22411;53.016;18.632;2023-05-10T05:21:34;5.32;;;2.20;;
36379;SDS011;22411;53.016;18.632;2023-05-10T05:24:01;4.05;;;2.38;;
36379;SDS011;22411;53.016;18.632;2023-05-10T05:26:27;4.65;;;2.70;;
36379;SDS011;22411;53.016;18.632;2023-05-10T05:28:53;5.10;;;2.13;;
36379;SDS011;22411;53.016;18.632;2023-05-10T05:31:20;4.10;;;2.65;;
36379;SDS011;22411;53.016;18.632;2023-05-10T05:33:50;4.15;;;1.90;;
36379;SDS011;22411;53.016;18.632;2023-05-10T05:38:43;4.93;;;1.63;;
36379;SDS011;22411;53.016;18.632;2023-05-10T05:41:09;5.10;;;1.80;;
36379;SDS011;22411;53.016;18.632;2023-05-10T05:43:35;4.70;;;2.47;;
36379;SDS011;22411;53.016;18.632;2023-05-10T05:46:02;7.03;;;2.55;;
36379;SDS011;22411;53.016;18.632;2023-05-10T05:48:29;4.22;;;2.08;;
36379;SDS011;22411;53.016;18.632;2023-05-10T05:50:57;5.57;;;1.98;;
36379;SDS011;22411;53.016;18.632;2023-05-10T05:53:23;4.10;;;1.63;;
36379;SDS011;22411;53.016;18.632;2023-05-10T05:55:53;6.28;;;1.80;;
36379;SDS011;22411;53.016;18.632;2023-05-10T05:58:20;4.95;;;1.23;;
36379;SDS011;22411;53.016;18.632;2023-05-10T06:00:48;4.25;;;1.60;;
36379;SDS011;22411;53.016;18.632;2023-05-10T06:03:13;6.72;;;1.90;;
36379;SDS011;22411;53.016;18.632;2023-05-10T06:05:40;3.63;;;1.73;;
36379;SDS011;22411;53.016;18.632;2023-05-10T06:08:07;2.83;;;2.03;;
36379;SDS011;22411;53.016;18.632;2023-05-10T06:10:33;9.00;;;1.98;;
36379;SDS011;22411;53.016;18.632;2023-05-10T06:12:59;3.67;;;1.55;;
36379;SDS011;22411;53.016;18.632;2023-05-10T06:15:25;2.20;;;1.42;;
36379;SDS011;22411;53.016;18.632;2023-05-10T06:17:52;3.53;;;1.05;;
36379;SDS011;22411;53.016;18.632;2023-05-10T06:20:18;4.60;;;1.17;;
36379;SDS011;22411;53.016;18.632;2023-05-10T06:22:44;3.85;;;1.70;;
36379;SDS011;22411;53.016;18.632;2023-05-10T06:25:11;5.25;;;1.17;;
36379;SDS011;22411;53.016;18.632;2023-05-10T06:27:37;5.13;;;1.65;;
36379;SDS011;22411;53.016;18.632;2023-05-10T06:30:04;4.07;;;1.27;;
36379;SDS011;22411;53.016;18.632;2023-05-10T06:32:32;2.97;;;1.25;;
36379;SDS011;22411;53.016;18.632;2023-05-10T06:34:58;3.95;;;0.93;;
36379;SDS011;22411;53.016;18.632;2023-05-10T06:37:24;3.35;;;1.00;;
36379;SDS011;22411;53.016;18.632;2023-05-10T06:39:50;3.20;;;1.35;;
36379;SDS011;22411;53.016;18.632;2023-05-10T06:42:17;2.13;;;1.10;;
36379;SDS011;22411;53.016;18.632;2023-05-10T06:44:43;3.03;;;1.00;;
36379;SDS011;22411;53.016;18.632;2023-05-10T06:47:09;4.20;;;1.90;;
36379;SDS011;22411;53.016;18.632;2023-05-10T06:49:36;5.88;;;1.08;;
36379;SDS011;22411;53.016;18.632;2023-05-10T06:52:03;3.92;;;1.10;;
36379;SDS011;22411;53.016;18.632;2023-05-10T06:54:30;4.85;;;1.23;;
36379;SDS011;22411;53.016;18.632;2023-05-10T06:56:56;3.17;;;1.08;;
36379;SDS011;22411;53.016;18.632;2023-05-10T06:59:22;3.45;;;0.82;;
36379;SDS011;22411;53.016;18.632;2023-05-10T07:01:49;2.85;;;1.15;;
36379;SDS011;22411;53.016;18.632;2023-05-10T07:04:16;2.25;;;0.73;;
36379;SDS011;22411;53.016;18.632;2023-05-10T07:06:42;2.40;;;0.73;;
36379;SDS011;22411;53.016;18.632;2023-05-10T07:09:09;2.50;;;0.90;;
36379;SDS011;22411;53.016;18.632;2023-05-10T07:11:36;2.63;;;0.77;;
36379;SDS011;22411;53.016;18.632;2023-05-10T07:14:03;3.90;;;0.90;;
36379;SDS011;22411;53.016;18.632;2023-05-10T07:16:29;3.17;;;0.80;;
36379;SDS011;22411;53.016;18.632;2023-05-10T07:18:55;5.25;;;1.38;;
36379;SDS011;22411;53.016;18.632;2023-05-10T07:21:21;4.70;;;0.90;;
36379;SDS011;22411;53.016;18.632;2023-05-10T07:23:49;2.50;;;0.85;;
36379;SDS011;22411;53.016;18.632;2023-05-10T07:26:15;3.28;;;0.73;;
36379;SDS011;22411;53.016;18.632;2023-05-10T07:28:41;2.38;;;0.70;;
36379;SDS011;22411;53.016;18.632;2023-05-10T07:31:07;2.45;;;0.73;;
36379;SDS011;22411;53.016;18.632;2023-05-10T07:33:34;1.70;;;0.60;;
36379;SDS011;22411;53.016;18.632;2023-05-10T07:36:00;2.65;;;0.70;;
36379;SDS011;22411;53.016;18.632;2023-05-10T07:38:26;4.05;;;0.93;;
36379;SDS011;22411;53.016;18.632;2023-05-10T07:40:52;4.53;;;0.80;;
36379;SDS011;22411;53.016;18.632;2023-05-10T07:43:19;2.83;;;0.93;;
36379;SDS011;22411;53.016;18.632;2023-05-10T07:45:45;1.95;;;0.80;;
36379;SDS011;22411;53.016;18.632;2023-05-10T07:48:11;3.47;;;0.52;;
36379;SDS011;22411;53.016;18.632;2023-05-10T07:50:37;3.55;;;0.63;;
36379;SDS011;22411;53.016;18.632;2023-05-10T07:53:03;3.97;;;1.10;;
36379;SDS011;22411;53.016;18.632;2023-05-10T07:55:31;3.05;;;0.90;;
36379;SDS011;22411;53.016;18.632;2023-05-10T07:57:57;3.80;;;0.50;;
36379;SDS011;22411;53.016;18.632;2023-05-10T08:00:26;2.92;;;1.35;;
36379;SDS011;22411;53.016;18.632;2023-05-10T08:02:52;2.53;;;0.82;;
36379;SDS011;22411;53.016;18.632;2023-05-10T08:05:19;3.53;;;1.15;;
36379;SDS011;22411;53.016;18.632;2023-05-10T08:07:46;1.27;;;0.60;;
36379;SDS011;22411;53.016;18.632;2023-05-10T08:10:12;3.45;;;0.73;;
36379;SDS011;22411;53.016;18.632;2023-05-10T08:12:38;2.50;;;0.50;;
36379;SDS011;22411;53.016;18.632;2023-05-10T08:15:04;4.50;;;0.65;;
36379;SDS011;22411;53.016;18.632;2023-05-10T08:17:31;1.60;;;0.70;;
36379;SDS011;22411;53.016;18.632;2023-05-10T08:19:57;5.60;;;0.90;;
36379;SDS011;22411;53.016;18.632;2023-05-10T08:22:23;3.20;;;0.90;;
36379;SDS011;22411;53.016;18.632;2023-05-10T08:24:49;2.05;;;1.00;;
36379;SDS011;22411;53.016;18.632;2023-05-10T08:27:15;1.63;;;0.70;;
36379;SDS011;22411;53.016;18.632;2023-05-10T08:29:41;2.55;;;0.82;;
36379;SDS011;22411;53.016;18.632;2023-05-10T08:32:07;3.53;;;0.88;;
36379;SDS011;22411;53.016;18.632;2023-05-10T08:34:33;1.67;;;0.70;;
36379;SDS011;22411;53.016;18.632;2023-05-10T08:36:59;5.53;;;0.73;;
36379;SDS011;22411;53.016;18.632;2023-05-10T08:39:25;2.20;;;0.80;;
36379;SDS011;22411;53.016;18.632;2023-05-10T08:41:51;2.15;;;0.70;;
36379;SDS011;22411;53.016;18.632;2023-05-10T08:44:23;1.95;;;0.60;;
36379;SDS011;22411;53.016;18.632;2023-05-10T08:46:51;2.15;;;0.77;;
36379;SDS011;22411;53.016;18.632;2023-05-10T08:49:19;2.53;;;1.02;;
36379;SDS011;22411;53.016;18.632;2023-05-10T08:51:48;4.55;;;0.95;;
36379;SDS011;22411;53.016;18.632;2023-05-10T08:54:17;3.40;;;1.00;;
36379;SDS011;22411;53.016;18.632;2023-05-10T08:56:43;3.22;;;0.70;;
36379;SDS011;22411;53.016;18.632;2023-05-10T08:59:09;4.32;;;1.10;;
36379;SDS011;22411;53.016;18.632;2023-05-10T09:01:37;2.15;;;0.70;;
36379;SDS011;22411;53.016;18.632;2023-05-10T09:04:05;2.85;;;1.00;;
36379;SDS011;22411;53.016;18.632;2023-05-10T09:06:31;21.33;;;11.43;;
36379;SDS011;22411;53.016;18.632;2023-05-10T09:08:58;4.35;;;2.60;;
36379;SDS011;22411;53.016;18.632;2023-05-10T09:11:28;5.40;;;3.28;;
36379;SDS011;22411;53.016;18.632;2023-05-10T09:13:55;12.10;;;8.25;;
36379;SDS011;22411;53.016;18.632;2023-05-10T09:16:22;13.90;;;9.50;;
36379;SDS011;22411;53.016;18.632;2023-05-10T09:18:48;7.22;;;6.47;;
36379;SDS011;22411;53.016;18.632;2023-05-10T09:21:15;15.02;;;11.60;;
36379;SDS011;22411;53.016;18.632;2023-05-10T09:23:44;5.90;;;2.03;;
36379;SDS011;22411;53.016;18.632;2023-05-10T09:26:12;5.75;;;1.02;;
36379;SDS011;22411;53.016;18.632;2023-05-10T09:29:00;1.50;;;0.75;;
36379;SDS011;22411;53.016;18.632;2023-05-10T09:31:45;2.38;;;0.85;;
36379;SDS011;22411;53.016;18.632;2023-05-10T09:34:22;4.35;;;1.20;;
36379;SDS011;22411;53.016;18.632;2023-05-10T09:36:56;3.55;;;1.20;;
36379;SDS011;22411;53.016;18.632;2023-05-10T09:39:29;1.67;;;0.73;;
36379;SDS011;22411;53.016;18.632;2023-05-10T09:41:58;2.50;;;0.82;;
36379;SDS011;22411;53.016;18.632;2023-05-10T09:44:29;4.55;;;1.13;;
36379;SDS011;22411;53.016;18.632;2023-05-10T09:46:56;2.78;;;1.00;;
36379;SDS011;22411;53.016;18.632;2023-05-10T09:49:22;1.83;;;0.90;;
36379;SDS011;22411;53.016;18.632;2023-05-10T09:52:01;3.67;;;2.35;;
36379;SDS011;22411;53.016;18.632;2023-05-10T09:54:29;6.95;;;2.22;;
36379;SDS011;22411;53.016;18.632;2023-05-10T09:56:56;3.50;;;1.10;;
36379;SDS011;22411;53.016;18.632;2023-05-10T09:59:22;1.15;;;0.70;;
36379;SDS011;22411;53.016;18.632;2023-05-10T10:01:52;2.80;;;0.70;;
36379;SDS011;22411;53.016;18.632;2023-05-10T10:04:21;4.10;;;0.50;;
36379;SDS011;22411;53.016;18.632;2023-05-10T10:06:58;5.68;;;0.80;;
36379;SDS011;22411;53.016;18.632;2023-05-10T10:09:29;1.65;;;0.70;;
36379;SDS011;22411;53.016;18.632;2023-05-10T10:11:55;3.40;;;0.93;;
36379;SDS011;22411;53.016;18.632;2023-05-10T10:14:23;2.83;;;0.50;;
36379;SDS011;22411;53.016;18.632;2023-05-10T10:16:50;2.97;;;0.73;;
36379;SDS011;22411;53.016;18.632;2023-05-10T10:19:21;2.63;;;0.70;;
36379;SDS011;22411;53.016;18.632;2023-05-10T10:21:48;1.02;;;0.50;;
36379;SDS011;22411;53.016;18.632;2023-05-10T10:24:15;1.25;;;0.57;;
36379;SDS011;22411;53.016;18.632;2023-05-10T10:26:42;2.28;;;0.60;;
36379;SDS011;22411;53.016;18.632;2023-05-10T10:34:29;3.03;;;0.68;;
36379;SDS011;22411;53.016;18.632;2023-05-10T10:36:57;3.35;;;0.63;;
36379;SDS011;22411;53.016;18.632;2023-05-10T10:39:23;3.28;;;0.50;;
36379;SDS011;22411;53.016;18.632;2023-05-10T10:41:56;2.40;;;0.60;;
36379;SDS011;22411;53.016;18.632;2023-05-10T10:44:33;2.05;;;0.70;;
36379;SDS011;22411;53.016;18.632;2023-05-10T10:47:05;1.70;;;0.73;;
36379;SDS011;22411;53.016;18.632;2023-05-10T10:49:38;1.10;;;0.40;;
36379;SDS011;22411;53.016;18.632;2023-05-10T10:55:00;2.70;;;0.80;;
36379;SDS011;22411;53.016;18.632;2023-05-10T11:08:13;2.92;;;0.50;;
36379;SDS011;22411;53.016;18.632;2023-05-10T11:10:50;1.98;;;0.90;;
36379;SDS011;22411;53.016;18.632;2023-05-10T11:13:26;1.75;;;0.70;;
36379;SDS011;22411;53.016;18.632;2023-05-10T11:15:54;3.08;;;0.60;;
36379;SDS011;22411;53.016;18.632;2023-05-10T11:18:23;6.05;;;2.25;;
36379;SDS011;22411;53.016;18.632;2023-05-10T11:21:00;6.32;;;0.90;;
36379;SDS011;22411;53.016;18.632;2023-05-10T11:23:54;2.10;;;0.70;;
36379;SDS011;22411;53.016;18.632;2023-05-10T11:26:33;4.38;;;1.20;;
36379;SDS011;22411;53.016;18.632;2023-05-10T11:29:00;3.92;;;0.90;;
36379;SDS011;22411;53.016;18.632;2023-05-10T11:31:28;3.97;;;1.27;;
36379;SDS011;22411;53.016;18.632;2023-05-10T11:33:58;5.22;;;1.48;;
36379;SDS011;22411;53.016;18.632;2023-05-10T11:36:27;7.88;;;1.77;;
36379;SDS011;22411;53.016;18.632;2023-05-10T11:38:56;3.20;;;1.67;;
36379;SDS011;22411;53.016;18.632;2023-05-10T11:41:22;4.35;;;2.00;;
36379;SDS011;22411;53.016;18.632;2023-05-10T11:43:50;2.67;;;1.40;;
36379;SDS011;22411;53.016;18.632;2023-05-10T11:46:21;3.88;;;1.77;;
36379;SDS011;22411;53.016;18.632;2023-05-10T11:48:49;3.22;;;1.98;;
36379;SDS011;22411;53.016;18.632;2023-05-10T11:51:20;2.22;;;1.15;;
36379;SDS011;22411;53.016;18.632;2023-05-10T11:53:49;4.35;;;2.00;;
36379;SDS011;22411;53.016;18.632;2023-05-10T11:56:21;3.67;;;0.98;;
36379;SDS011;22411;53.016;18.632;2023-05-10T11:58:56;4.10;;;1.00;;
36379;SDS011;22411;53.016;18.632;2023-05-10T12:01:24;3.13;;;0.80;;
36379;SDS011;22411;53.016;18.632;2023-05-10T12:03:52;8.00;;;1.98;;
36379;SDS011;22411;53.016;18.632;2023-05-10T12:06:20;2.47;;;1.13;;
36379;SDS011;22411;53.016;18.632;2023-05-10T12:08:47;7.68;;;2.03;;
36379;SDS011;22411;53.016;18.632;2023-05-10T12:11:19;4.65;;;2.13;;
36379;SDS011;22411;53.016;18.632;2023-05-10T12:13:47;4.72;;;1.17;;
36379;SDS011;22411;53.016;18.632;2023-05-10T12:16:18;2.97;;;0.70;;
36379;SDS011;22411;53.016;18.632;2023-05-10T12:18:50;3.47;;;0.65;;
36379;SDS011;22411;53.016;18.632;2023-05-10T12:21:23;9.95;;;0.73;;
36379;SDS011;22411;53.016;18.632;2023-05-10T12:23:52;1.35;;;0.55;;
36379;SDS011;22411;53.016;18.632;2023-05-10T12:26:22;3.33;;;0.60;;
36379;SDS011;22411;53.016;18.632;2023-05-10T12:28:50;1.65;;;0.77;;
36379;SDS011;22411;53.016;18.632;2023-05-10T12:31:18;2.88;;;0.40;;
36379;SDS011;22411;53.016;18.632;2023-05-10T12:33:45;1.88;;;0.82;;
36379;SDS011;22411;53.016;18.632;2023-05-10T12:36:13;8.98;;;1.10;;
36379;SDS011;22411;53.016;18.632;2023-05-10T12:38:42;2.92;;;0.60;;
36379;SDS011;22411;53.016;18.632;2023-05-10T12:41:17;3.72;;;0.50;;
36379;SDS011;22411;53.016;18.632;2023-05-10T12:43:44;2.10;;;0.80;;
36379;SDS011;22411;53.016;18.632;2023-05-10T12:46:16;8.85;;;0.90;;
36379;SDS011;22411;53.016;18.632;2023-05-10T12:48:44;3.60;;;0.60;;
36379;SDS011;22411;53.016;18.632;2023-05-10T12:51:12;3.55;;;0.80;;
36379;SDS011;22411;53.016;18.632;2023-05-10T12:53:41;1.77;;;0.40;;
36379;SDS011;22411;53.016;18.632;2023-05-10T12:56:07;1.70;;;0.60;;
36379;SDS011;22411;53.016;18.632;2023-05-10T12:58:34;2.15;;;0.65;;
36379;SDS011;22411;53.016;18.632;2023-05-10T13:01:01;9.38;;;0.70;;
36379;SDS011;22411;53.016;18.632;2023-05-10T13:03:29;2.80;;;0.73;;
36379;SDS011;22411;53.016;18.632;2023-05-10T13:05:55;4.60;;;1.15;;
36379;SDS011;22411;53.016;18.632;2023-05-10T13:08:21;3.03;;;0.70;;
36379;SDS011;22411;53.016;18.632;2023-05-10T13:10:47;2.50;;;1.00;;
36379;SDS011;22411;53.016;18.632;2023-05-10T13:13:14;4.60;;;0.75;;
36379;SDS011;22411;53.016;18.632;2023-05-10T13:15:41;3.58;;;0.70;;
36379;SDS011;22411;53.016;18.632;2023-05-10T13:18:08;4.28;;;1.92;;
36379;SDS011;22411;53.016;18.632;2023-05-10T13:20:34;2.88;;;0.77;;
36379;SDS011;22411;53.016;18.632;2023-05-10T13:23:00;2.92;;;0.85;;
36379;SDS011;22411;53.016;18.632;2023-05-10T13:25:26;3.80;;;0.90;;
36379;SDS011;22411;53.016;18.632;2023-05-10T13:27:53;1.98;;;0.80;;
36379;SDS011;22411;53.016;18.632;2023-05-10T13:30:19;1.88;;;0.50;;
36379;SDS011;22411;53.016;18.632;2023-05-10T13:32:46;7.28;;;4.43;;
36379;SDS011;22411;53.016;18.632;2023-05-10T13:35:12;19.83;;;13.75;;
36379;SDS011;22411;53.016;18.632;2023-05-10T13:37:38;14.02;;;8.25;;
36379;SDS011;22411;53.016;18.632;2023-05-10T13:40:10;11.15;;;7.30;;
36379;SDS011;22411;53.016;18.632;2023-05-10T13:42:37;3.83;;;0.70;;
36379;SDS011;22411;53.016;18.632;2023-05-10T13:45:04;2.13;;;0.60;;
36379;SDS011;22411;53.016;18.632;2023-05-10T13:47:31;2.80;;;0.50;;
36379;SDS011;22411;53.016;18.632;2023-05-10T13:49:58;4.15;;;1.60;;
36379;SDS011;22411;53.016;18.632;2023-05-10T13:52:28;2.08;;;0.60;;
36379;SDS011;22411;53.016;18.632;2023-05-10T13:54:55;2.05;;;1.00;;
36379;SDS011;22411;53.016;18.632;2023-05-10T13:57:28;1.80;;;1.00;;
36379;SDS011;22411;53.016;18.632;2023-05-10T13:59:55;4.15;;;1.25;;
36379;SDS011;22411;53.016;18.632;2023-05-10T14:02:23;3.38;;;0.70;;
36379;SDS011;22411;53.016;18.632;2023-05-10T14:04:50;2.38;;;0.40;;
36379;SDS011;22411;53.016;18.632;2023-05-10T14:07:17;3.13;;;0.90;;
36379;SDS011;22411;53.016;18.632;2023-05-10T14:09:43;4.65;;;0.88;;
36379;SDS011;22411;53.016;18.632;2023-05-10T14:12:10;6.97;;;0.60;;
36379;SDS011;22411;53.016;18.632;2023-05-10T14:14:36;3.15;;;0.75;;
36379;SDS011;22411;53.016;18.632;2023-05-10T14:17:02;5.03;;;0.55;;
36379;SDS011;22411;53.016;18.632;2023-05-10T14:19:29;3.58;;;0.68;;
36379;SDS011;22411;53.016;18.632;2023-05-10T14:21:58;3.50;;;0.52;;
36379;SDS011;22411;53.016;18.632;2023-05-10T14:24:25;1.88;;;0.50;;
36379;SDS011;22411;53.016;18.632;2023-05-10T14:26:52;2.80;;;0.75;;
36379;SDS011;22411;53.016;18.632;2023-05-10T14:29:20;3.20;;;0.80;;
36379;SDS011;22411;53.016;18.632;2023-05-10T14:31:47;2.13;;;0.55;;
36379;SDS011;22411;53.016;18.632;2023-05-10T14:34:13;2.97;;;0.45;;
36379;SDS011;22411;53.016;18.632;2023-05-10T14:39:27;3.08;;;0.60;;
36379;SDS011;22411;53.016;18.632;2023-05-10T14:41:55;2.78;;;0.45;;
36379;SDS011;22411;53.016;18.632;2023-05-10T14:44:23;4.60;;;0.70;;
36379;SDS011;22411;53.016;18.632;2023-05-10T14:46:50;3.05;;;0.60;;
36379;SDS011;22411;53.016;18.632;2023-05-10T14:49:16;2.75;;;0.60;;
36379;SDS011;22411;53.016;18.632;2023-05-10T14:51:42;3.75;;;0.77;;
36379;SDS011;22411;53.016;18.632;2023-05-10T14:54:10;1.98;;;0.70;;
36379;SDS011;22411;53.016;18.632;2023-05-10T14:56:36;3.33;;;0.60;;
36379;SDS011;22411;53.016;18.632;2023-05-10T14:59:03;2.78;;;0.30;;
36379;SDS011;22411;53.016;18.632;2023-05-10T15:01:35;3.05;;;0.70;;
36379;SDS011;22411;53.016;18.632;2023-05-10T15:04:03;5.57;;;0.73;;
36379;SDS011;22411;53.016;18.632;2023-05-10T15:06:30;3.28;;;0.50;;
36379;SDS011;22411;53.016;18.632;2023-05-10T15:08:58;1.42;;;0.45;;
36379;SDS011;22411;53.016;18.632;2023-05-10T15:11:26;3.38;;;0.40;;
36379;SDS011;22411;53.016;18.632;2023-05-10T15:13:53;3.00;;;0.75;;
36379;SDS011;22411;53.016;18.632;2023-05-10T15:16:20;2.13;;;0.55;;